createdAt,value
2022-08-14T00:02:33.926Z,22.10
2022-08-14T00:05:26.037Z,22.10
2022-08-14T00:08:15.811Z,22.10
2022-08-14T00:11:25.210Z,22.10
2022-08-14T00:14:18.374Z,22.00
2022-08-14T00:17:08.022Z,22.00
2022-08-14T00:19:59.888Z,22.00
2022-08-14T00:22:57.665Z,22.00
2022-08-14T00:25:58.897Z,21.90
2022-08-14T00:28:56.318Z,21.90
2022-08-14T00:31:46.997Z,21.90
2022-08-14T00:34:46.768Z,21.90
2022-08-14T00:37:40.510Z,21.80
2022-08-14T00:40:35.348Z,21.80
2022-08-14T00:43:25.150Z,21.80
2022-08-14T00:46:32.520Z,21.80
2022-08-14T00:49:23.186Z,21.80
2022-08-14T00:52:17.695Z,21.70
2022-08-14T00:55:10.549Z,21.70
2022-08-14T00:58:27.844Z,21.70
2022-08-14T01:01:22.547Z,21.70
2022-08-14T01:04:38.360Z,21.60
2022-08-14T01:07:23.617Z,21.60
2022-08-14T01:10:14.493Z,21.60
2022-08-14T01:13:05.588Z,21.50
2022-08-14T01:16:02.636Z,21.50
2022-08-14T01:19:10.067Z,21.40
2022-08-14T01:22:02.989Z,21.40
2022-08-14T01:24:53.266Z,21.40
2022-08-14T01:27:57.106Z,21.30
2022-08-14T01:30:47.284Z,21.30
2022-08-14T01:33:59.271Z,21.30
2022-08-14T01:36:49.864Z,21.30
2022-08-14T01:39:40.770Z,21.30
2022-08-14T01:42:32.102Z,21.30
2022-08-14T01:45:25.833Z,21.20
2022-08-14T01:48:16.148Z,21.20
2022-08-14T01:51:20.257Z,21.20
2022-08-14T01:54:14.678Z,21.20
2022-08-14T01:57:11.572Z,21.20
2022-08-14T02:00:00.988Z,21.20
2022-08-14T02:03:12.902Z,21.20
2022-08-14T02:06:32.236Z,21.10
2022-08-14T02:09:22.261Z,21.10
2022-08-14T02:12:19.613Z,21.10
2022-08-14T02:15:21.777Z,21.10
2022-08-14T02:18:11.907Z,21.10
2022-08-14T02:21:04.961Z,21.00
2022-08-14T02:23:57.132Z,21.00
2022-08-14T02:26:58.419Z,21.00
2022-08-14T02:30:01.126Z,20.90
2022-08-14T02:32:51.835Z,20.90
2022-08-14T02:35:42.680Z,20.90
2022-08-14T02:38:34.330Z,20.80
2022-08-14T02:41:28.484Z,20.80
2022-08-14T02:44:29.538Z,20.80
2022-08-14T02:47:21.367Z,20.80
2022-08-14T02:50:11.388Z,20.80
2022-08-14T02:53:02.879Z,20.70
2022-08-14T02:55:53.899Z,20.70
2022-08-14T02:58:48.195Z,20.70
2022-08-14T03:01:50.581Z,20.70
2022-08-14T03:04:45.401Z,20.70
2022-08-14T03:07:34.791Z,20.60
2022-08-14T03:10:32.334Z,20.60
2022-08-14T03:13:23.444Z,20.60
2022-08-14T03:16:20.345Z,20.60
2022-08-14T03:19:16.124Z,20.60
2022-08-14T03:22:17.806Z,20.60
2022-08-14T03:25:10.032Z,20.60
2022-08-14T03:28:03.746Z,20.60
2022-08-14T03:30:54.781Z,20.60
2022-08-14T03:33:44.958Z,20.60
2022-08-14T03:37:50.734Z,20.60
2022-08-14T03:39:54.421Z,20.70
2022-08-14T03:42:44.166Z,20.70
2022-08-14T03:45:36.664Z,20.70
2022-08-14T03:48:31.515Z,20.70
2022-08-14T03:51:29.887Z,20.70
2022-08-14T03:54:20.717Z,20.80
2022-08-14T03:57:11.648Z,20.70
2022-08-14T04:00:03.057Z,20.80
2022-08-14T04:03:18.229Z,20.80
2022-08-14T04:06:12.350Z,20.80
2022-08-14T04:09:10.744Z,20.80
2022-08-14T04:12:00.132Z,20.80
2022-08-14T04:14:53.258Z,20.80
2022-08-14T04:17:43.672Z,20.80
2022-08-14T04:20:35.981Z,20.80
2022-08-14T04:23:42.726Z,20.80
2022-08-14T04:26:41.989Z,20.80
2022-08-14T04:29:32.894Z,20.90
2022-08-14T04:32:58.391Z,20.90
2022-08-14T04:35:56.789Z,20.90
2022-08-14T04:39:03.154Z,21.00
2022-08-14T04:42:18.565Z,21.10
2022-08-14T04:45:08.927Z,21.20
2022-08-14T04:48:39.086Z,21.50
2022-08-14T04:51:25.954Z,21.60
2022-08-14T04:54:17.259Z,21.90
2022-08-14T04:57:07.041Z,22.00
2022-08-14T05:00:00.556Z,22.10
2022-08-14T05:02:50.674Z,22.10
2022-08-14T05:05:41.458Z,22.20
2022-08-14T05:08:56.618Z,22.30
2022-08-14T05:11:44.096Z,22.40
2022-08-14T05:14:46.258Z,22.50
2022-08-14T05:17:58.750Z,22.70
2022-08-14T05:21:58.151Z,23.00
2022-08-14T05:24:17.818Z,23.40
2022-08-14T05:27:09.555Z,23.80
2022-08-14T05:29:59.059Z,24.30
2022-08-14T05:32:48.684Z,24.80
2022-08-14T05:35:38.173Z,25.20
2022-08-14T05:38:36.905Z,25.60
2022-08-14T05:41:51.014Z,26.10
2022-08-14T05:44:35.680Z,26.50
2022-08-14T05:47:28.715Z,27.00
2022-08-14T05:50:23.680Z,27.40
2022-08-14T05:53:13.128Z,27.90
2022-08-14T05:56:06.223Z,28.40
2022-08-14T05:58:56.205Z,28.80
2022-08-14T06:01:45.635Z,29.20
2022-08-14T06:04:36.176Z,29.60
2022-08-14T06:07:25.771Z,30.00
2022-08-14T06:10:15.718Z,30.40
2022-08-14T06:13:09.984Z,30.80
2022-08-14T06:16:01.211Z,31.10
2022-08-14T06:18:52.998Z,31.30
2022-08-14T06:21:42.589Z,31.60
2022-08-14T06:24:34.763Z,31.80
2022-08-14T06:27:25.107Z,32.10
2022-08-14T06:30:30.093Z,32.40
2022-08-14T06:35:04.168Z,32.70
2022-08-14T06:36:40.985Z,33.10
2022-08-14T06:39:36.968Z,33.40
2022-08-14T06:42:32.871Z,33.60
2022-08-14T06:45:26.067Z,33.70
2022-08-14T06:48:17.488Z,33.80
2022-08-14T06:51:06.975Z,33.80
2022-08-14T06:53:57.079Z,33.70
2022-08-14T06:56:54.469Z,33.70
2022-08-14T06:59:46.491Z,33.70
2022-08-14T07:02:54.911Z,33.60
2022-08-14T07:05:55.382Z,33.50
2022-08-14T07:08:46.196Z,33.30
2022-08-14T07:11:37.660Z,33.10
2022-08-14T07:14:27.161Z,32.90
2022-08-14T07:17:16.605Z,32.90
2022-08-14T07:20:09.804Z,33.10
2022-08-14T07:23:09.184Z,33.30
2022-08-14T07:26:03.554Z,33.60
2022-08-14T07:28:53.539Z,33.90
2022-08-14T07:31:44.187Z,34.30
2022-08-14T07:34:40.827Z,34.50
2022-08-14T07:37:32.182Z,34.70
2022-08-14T07:40:27.760Z,34.80
2022-08-14T07:43:19.619Z,34.90
2022-08-14T07:46:11.040Z,35.00
2022-08-14T07:49:01.808Z,35.10
2022-08-14T07:51:52.504Z,35.20
2022-08-14T07:54:44.922Z,35.40
2022-08-14T07:57:35.875Z,35.50
2022-08-14T08:00:31.648Z,35.70
2022-08-14T08:03:25.149Z,36.10
2022-08-14T08:06:18.462Z,36.60
2022-08-14T08:09:11.181Z,37.10
2022-08-14T08:12:05.045Z,37.70
2022-08-14T08:14:56.842Z,38.40
2022-08-14T08:17:53.488Z,39.00
2022-08-14T08:20:53.477Z,39.60
2022-08-14T08:23:51.030Z,40.10
2022-08-14T08:26:40.902Z,40.50
2022-08-14T08:29:33.186Z,40.80
2022-08-14T08:32:29.946Z,41.10
2022-08-14T08:35:21.733Z,41.60
2022-08-14T08:39:17.145Z,42.10
2022-08-14T08:41:24.410Z,42.60
2022-08-14T08:44:31.130Z,43.10
2022-08-14T08:47:24.004Z,43.50
2022-08-14T08:53:19.939Z,44.10
2022-08-14T08:56:09.373Z,44.10
2022-08-14T08:58:59.551Z,43.90
2022-08-14T09:01:56.374Z,43.90
2022-08-14T09:04:53.240Z,43.70
2022-08-14T09:07:43.195Z,43.60
2022-08-14T09:10:32.630Z,43.60
2022-08-14T09:13:26.235Z,43.50
2022-08-14T09:16:19.206Z,43.40
2022-08-14T09:19:09.899Z,43.20
2022-08-14T09:22:01.347Z,43.10
2022-08-14T09:25:11.570Z,42.90
2022-08-14T09:28:05.454Z,42.80
2022-08-14T09:30:57.929Z,42.70
2022-08-14T09:34:09.220Z,42.50
2022-08-14T09:37:40.955Z,42.40
2022-08-14T09:40:44.276Z,42.40
2022-08-14T09:43:49.747Z,42.50
2022-08-14T09:46:40.503Z,42.60
2022-08-14T09:49:42.408Z,42.60
2022-08-14T09:52:34.522Z,42.50
2022-08-14T09:55:26.163Z,42.40
2022-08-14T09:58:22.734Z,42.20
2022-08-14T10:01:15.180Z,42.20
2022-08-14T10:04:33.549Z,42.20
2022-08-14T10:07:33.913Z,42.20
2022-08-14T10:10:34.479Z,42.10
2022-08-14T10:13:26.277Z,42.20
2022-08-14T10:16:21.972Z,42.20
2022-08-14T10:19:20.498Z,42.30
2022-08-14T10:23:13.415Z,42.30
2022-08-14T10:25:22.942Z,42.20
2022-08-14T10:28:51.499Z,42.10
2022-08-14T10:31:29.579Z,41.90
2022-08-14T10:34:36.666Z,41.80
2022-08-14T10:37:27.965Z,41.70
2022-08-14T10:40:38.777Z,41.50
2022-08-14T10:43:33.886Z,41.40
2022-08-14T10:47:40.419Z,41.40
2022-08-14T10:49:35.875Z,41.40
2022-08-14T10:52:29.911Z,41.30
2022-08-14T10:55:20.938Z,41.30
2022-08-14T10:58:12.448Z,41.30
2022-08-14T11:01:08.115Z,41.30
2022-08-14T11:03:57.834Z,41.30
2022-08-14T11:06:54.129Z,41.30
2022-08-14T11:09:55.724Z,41.30
2022-08-14T11:12:49.047Z,41.30
2022-08-14T11:15:41.010Z,41.20
2022-08-14T11:18:36.320Z,41.00
2022-08-14T11:21:34.120Z,40.80
2022-08-14T11:24:54.213Z,40.40
2022-08-14T11:27:41.628Z,40.10
2022-08-14T11:30:50.781Z,39.80
2022-08-14T11:33:43.320Z,39.40
2022-08-14T11:36:57.072Z,39.00
2022-08-14T11:39:42.380Z,38.70
2022-08-14T11:43:06.145Z,38.30
2022-08-14T11:45:49.600Z,38.10
2022-08-14T11:49:02.358Z,37.80
2022-08-14T11:51:55.498Z,37.80
2022-08-14T11:55:00.534Z,37.60
2022-08-14T11:58:03.644Z,37.50
2022-08-14T12:00:58.751Z,37.40
2022-08-14T12:03:51.969Z,37.20
2022-08-14T12:06:51.612Z,37.10
2022-08-14T12:09:43.091Z,36.90
2022-08-14T12:12:35.619Z,36.80
2022-08-14T12:15:37.932Z,36.60
2022-08-14T12:18:36.659Z,36.50
2022-08-14T12:21:29.562Z,36.30
2022-08-14T12:24:35.996Z,36.20
2022-08-14T12:27:41.467Z,36.10
2022-08-14T12:30:42.389Z,35.90
2022-08-14T12:33:34.477Z,35.80
2022-08-14T12:36:24.038Z,35.70
2022-08-14T12:39:24.665Z,35.60
2022-08-14T12:42:34.578Z,35.50
2022-08-14T12:45:34.433Z,35.50
2022-08-14T12:48:32.351Z,35.50
2022-08-14T12:51:27.169Z,35.40
2022-08-14T12:54:27.174Z,35.30
2022-08-14T12:57:20.609Z,35.20
2022-08-14T13:00:23.145Z,35.00
2022-08-14T13:03:27.002Z,34.90
2022-08-14T13:06:17.817Z,34.80
2022-08-14T13:09:11.588Z,34.60
2022-08-14T13:12:32.166Z,34.50
2022-08-14T13:15:17.813Z,34.40
2022-08-14T13:18:12.325Z,34.40
2022-08-14T13:21:05.589Z,34.30
2022-08-14T13:23:57.043Z,34.20
2022-08-14T13:26:51.382Z,34.10
2022-08-14T13:29:47.198Z,34.10
2022-08-14T13:32:40.560Z,34.00
2022-08-14T13:35:29.958Z,33.90
2022-08-14T13:38:22.220Z,33.90
2022-08-14T13:41:12.372Z,34.00
2022-08-14T13:44:02.120Z,34.10
2022-08-14T13:46:51.552Z,34.10
2022-08-14T13:49:58.043Z,34.20
2022-08-14T13:52:59.334Z,34.20
2022-08-14T13:55:52.075Z,34.30
2022-08-14T13:58:46.880Z,34.20
2022-08-14T14:01:43.458Z,34.20
2022-08-14T14:04:34.380Z,34.20
2022-08-14T14:07:26.137Z,34.10
2022-08-14T14:10:28.153Z,34.10
2022-08-14T14:13:20.186Z,34.00
2022-08-14T14:16:11.782Z,33.90
2022-08-14T14:19:09.703Z,33.80
2022-08-14T14:22:01.507Z,33.70
2022-08-14T14:24:54.622Z,33.60
2022-08-14T14:27:45.562Z,33.50
2022-08-14T14:30:52.713Z,33.40
2022-08-14T14:33:49.003Z,33.30
2022-08-14T14:36:41.513Z,33.30
2022-08-14T14:39:37.962Z,33.20
2022-08-14T14:42:53.212Z,33.00
2022-08-14T14:45:46.895Z,32.90
2022-08-14T14:48:46.730Z,32.80
2022-08-14T14:51:51.153Z,32.70
2022-08-14T14:54:43.267Z,32.50
2022-08-14T14:57:35.212Z,32.50
2022-08-14T15:00:30.921Z,32.40
2022-08-14T15:03:20.943Z,32.30
2022-08-14T15:06:10.621Z,32.30
2022-08-14T15:09:04.843Z,32.30
2022-08-14T15:11:58.708Z,32.40
2022-08-14T15:14:54.920Z,32.30
2022-08-14T15:17:59.025Z,32.40
2022-08-14T15:20:48.554Z,32.40
2022-08-14T15:23:44.526Z,32.40
2022-08-14T15:26:35.621Z,32.50
2022-08-14T15:29:25.201Z,32.60
2022-08-14T15:32:14.637Z,32.60
2022-08-14T15:35:09.314Z,32.60
2022-08-14T15:38:08.048Z,32.70
2022-08-14T15:40:57.832Z,32.80
2022-08-14T15:43:47.215Z,32.80
2022-08-14T15:46:43.542Z,32.80
2022-08-14T15:49:35.291Z,32.90
2022-08-14T15:52:33.092Z,32.90
2022-08-14T15:55:24.586Z,32.90
2022-08-14T15:58:14.528Z,32.90
2022-08-14T16:01:50.785Z,32.90
2022-08-14T16:04:33.082Z,32.80
2022-08-14T16:07:25.153Z,32.70
2022-08-14T16:10:29.029Z,32.70
2022-08-14T16:13:39.871Z,32.60
2022-08-14T16:16:50.547Z,32.50
2022-08-14T16:19:47.545Z,32.40
2022-08-14T16:22:57.408Z,32.30
2022-08-14T16:25:49.089Z,32.20
2022-08-14T16:28:42.903Z,32.10
2022-08-14T16:31:36.329Z,32.00
2022-08-14T16:34:46.346Z,31.90
2022-08-14T16:37:41.351Z,31.80
2022-08-14T16:40:33.120Z,31.70
2022-08-14T16:43:26.789Z,31.60
2022-08-14T16:46:22.469Z,31.50
2022-08-14T16:49:16.337Z,31.40
2022-08-14T16:52:25.747Z,31.40
2022-08-14T16:55:22.476Z,31.30
2022-08-14T16:58:29.598Z,31.20
2022-08-14T17:01:24.434Z,31.20
2022-08-14T17:04:24.952Z,31.10
2022-08-14T17:07:16.090Z,31.00
2022-08-14T17:10:09.420Z,30.90
2022-08-14T17:13:18.215Z,30.70
2022-08-14T17:16:23.963Z,30.60
2022-08-14T17:19:19.425Z,30.50
2022-08-14T17:22:12.359Z,30.40
2022-08-14T17:25:03.945Z,30.40
2022-08-14T17:28:51.944Z,30.30
2022-08-14T17:31:57.723Z,30.30
2022-08-14T17:34:49.661Z,30.20
2022-08-14T17:37:45.254Z,30.10
2022-08-14T17:40:34.824Z,30.10
2022-08-14T17:43:41.982Z,30.00
2022-08-14T17:46:43.545Z,30.00
2022-08-14T17:49:40.450Z,29.90
2022-08-14T17:52:40.789Z,29.80
2022-08-14T17:56:03.408Z,29.70
2022-08-14T17:58:42.850Z,29.60
2022-08-14T18:01:35.918Z,29.60
2022-08-14T18:04:29.071Z,29.40
2022-08-14T18:07:59.970Z,29.40
2022-08-14T18:10:55.480Z,29.30
2022-08-14T18:13:51.014Z,29.20
2022-08-14T18:16:43.850Z,29.10
2022-08-14T18:19:41.597Z,29.00
2022-08-14T18:22:37.801Z,28.90
2022-08-14T18:25:34.380Z,28.80
2022-08-14T18:28:48.476Z,28.80
2022-08-14T18:31:43.869Z,28.70
2022-08-14T18:34:50.762Z,28.60
2022-08-14T18:37:42.344Z,28.50
2022-08-14T18:40:45.698Z,28.40
2022-08-14T18:43:44.717Z,28.30
2022-08-14T18:47:21.146Z,28.20
2022-08-14T18:50:26.946Z,28.10
2022-08-14T18:53:24.759Z,28.00
2022-08-14T18:56:18.372Z,27.90
2022-08-14T18:59:35.836Z,27.80
2022-08-14T19:02:44.522Z,27.80
2022-08-14T19:06:01.173Z,27.70
2022-08-14T19:08:52.505Z,27.60
2022-08-14T19:11:50.311Z,27.50
2022-08-14T19:14:51.160Z,27.50
2022-08-14T19:18:05.002Z,27.40
2022-08-14T19:20:59.021Z,27.30
2022-08-14T19:24:27.155Z,27.20
2022-08-14T19:27:24.242Z,27.10
2022-08-14T19:30:25.726Z,27.10
2022-08-14T19:33:52.815Z,27.10
2022-08-14T19:37:05.030Z,27.00
2022-08-14T19:39:57.708Z,26.90
2022-08-14T19:42:50.362Z,26.80
2022-08-14T19:45:40.431Z,26.80
2022-08-14T19:48:29.957Z,26.70
2022-08-14T19:51:19.907Z,26.70
2022-08-14T19:54:13.555Z,26.60
2022-08-14T19:57:06.186Z,26.60
2022-08-14T20:00:05.909Z,26.50
2022-08-14T20:03:18.595Z,26.50
2022-08-14T20:06:09.129Z,26.40
2022-08-14T20:10:59.682Z,26.40
2022-08-14T20:12:34.750Z,26.30
2022-08-14T20:15:46.653Z,26.30
2022-08-14T20:18:49.127Z,26.30
2022-08-14T20:21:58.447Z,26.30
2022-08-14T20:24:50.095Z,26.20
2022-08-14T20:27:49.840Z,26.10
2022-08-14T20:30:53.708Z,26.10
2022-08-14T20:34:03.470Z,26.10
2022-08-14T20:37:04.210Z,26.00
2022-08-14T20:39:55.659Z,25.90
2022-08-14T20:43:08.513Z,25.90
2022-08-14T20:45:59.241Z,25.90
2022-08-14T20:49:01.207Z,25.80
2022-08-14T20:51:59.419Z,25.80
2022-08-14T20:54:51.712Z,25.70
2022-08-14T20:57:43.764Z,25.70
2022-08-14T21:00:52.275Z,25.60
2022-08-14T21:03:57.305Z,25.60
2022-08-14T21:07:23.414Z,25.50
2022-08-14T21:10:36.351Z,25.50
2022-08-14T21:13:27.509Z,25.40
2022-08-14T21:16:35.157Z,25.40
2022-08-14T21:19:28.985Z,25.30
2022-08-14T21:22:19.747Z,25.20
2022-08-14T21:25:11.076Z,25.20
2022-08-14T21:28:04.195Z,25.20
2022-08-14T21:30:55.152Z,25.10
2022-08-14T21:33:46.922Z,25.00
2022-08-14T21:36:51.684Z,24.90
2022-08-14T21:39:41.026Z,24.90
2022-08-14T21:42:30.897Z,24.90
2022-08-14T21:45:20.819Z,24.80
2022-08-14T21:48:12.385Z,24.70
2022-08-14T21:51:54.539Z,24.70
2022-08-14T21:54:30.410Z,24.60
2022-08-14T21:57:56.323Z,24.60
2022-08-14T22:00:42.595Z,24.60
2022-08-14T22:03:35.057Z,24.50
2022-08-14T22:06:28.643Z,24.50
2022-08-14T22:09:24.599Z,24.40
2022-08-14T22:12:47.367Z,24.40
2022-08-14T22:15:38.595Z,24.40
2022-08-14T22:18:34.412Z,24.40
2022-08-14T22:21:26.174Z,24.40
2022-08-14T22:24:37.691Z,24.30
2022-08-14T22:27:29.516Z,24.30
2022-08-14T22:30:21.009Z,24.30
2022-08-14T22:33:13.289Z,24.30
2022-08-14T22:36:26.193Z,24.20
2022-08-14T22:39:16.679Z,24.20
2022-08-14T22:42:21.423Z,24.20
2022-08-14T22:45:14.463Z,24.20
2022-08-14T22:48:10.900Z,24.20
2022-08-14T22:51:01.265Z,24.10
2022-08-14T22:53:54.080Z,24.10
2022-08-14T22:56:43.494Z,24.10
2022-08-14T22:59:36.810Z,24.00
2022-08-14T23:02:32.886Z,24.00
2022-08-14T23:05:39.084Z,24.00
2022-08-14T23:09:01.881Z,23.90
2022-08-14T23:11:39.290Z,23.90
2022-08-14T23:14:30.671Z,23.90
2022-08-14T23:17:20.245Z,23.80
2022-08-14T23:20:23.312Z,23.80
2022-08-14T23:23:22.701Z,23.80
2022-08-14T23:26:49.301Z,23.70
2022-08-14T23:29:22.598Z,23.70
2022-08-14T23:32:19.019Z,23.60
2022-08-14T23:35:10.096Z,23.60
2022-08-14T23:38:02.884Z,23.60
2022-08-14T23:40:52.318Z,23.50
2022-08-14T23:43:44.099Z,23.50
2022-08-14T23:46:34.639Z,23.40
2022-08-14T23:49:24.650Z,23.40
2022-08-14T23:52:55.558Z,23.30
2022-08-14T23:55:26.335Z,23.30
2022-08-14T23:58:29.872Z,23.20
